Time;durP1;ratioP1;P1;durP2;ratioP2;P2;SDS_P1;SDS_P2;PMS_P1;PMS_P2;Temp;Humidity;BMP_temperature;BMP_pressure;BME280_temperature;BME280_humidity;BME280_pressure;Samples;Min_cycle;Max_cycle;Signal;HPM_P1;HPM_P2
2024/03/25 00:00:11;;;;;;;;;;;13.20;72.20;;;;;;5043335;27;88296;-56
2024/03/25 00:02:40;;;;;;;;;;;13.20;72.10;;;;;;5042952;27;88624;-56
2024/03/25 00:05:09;;;;;;;;;;;13.20;72.20;;;;;;5040630;27;86944;-51
2024/03/25 00:07:35;;;;;;;;;;;13.20;72.20;;;;;;5043870;27;87874;-55
2024/03/25 00:10:01;;;;;;;;;;;13.20;72.20;;;;;;5040747;28;88525;-55
2024/03/25 00:12:27;;;;;;;;;;;13.10;71.90;;;;;;5044017;27;87002;-55
2024/03/25 00:14:52;;;;;;;;;;;13.10;72.00;;;;;;5043847;28;87046;-54
2024/03/25 00:17:19;;;;;;;;;;;13.10;72.00;;;;;;5047026;28;87292;-55
2024/03/25 00:19:50;;;;;;;;;;;13.10;72.10;;;;;;5042313;28;87162;-53
2024/03/25 00:22:16;;;;;;;;;;;13.10;72.10;;;;;;5042390;28;88361;-55
2024/03/25 00:24:42;;;;;;;;;;;13.10;72.20;;;;;;5041478;27;87869;-53
2024/03/25 00:27:07;;;;;;;;;;;13.00;72.10;;;;;;5043318;27;87887;-54
2024/03/25 00:29:33;;;;;;;;;;;13.00;72.20;;;;;;5047641;28;86897;-52
2024/03/25 00:31:59;;;;;;;;;;;13.00;72.20;;;;;;5047212;28;87019;-51
2024/03/25 00:34:24;;;;;;;;;;;13.00;72.00;;;;;;5041311;27;87764;-51
2024/03/25 00:36:50;;;;;;;;;;;13.00;72.10;;;;;;5045096;28;87831;-52
2024/03/25 00:39:16;;;;;;;;;;;12.90;72.10;;;;;;5044846;28;86954;-52
2024/03/25 00:41:41;;;;;;;;;;;12.90;72.30;;;;;;5046679;27;86939;-50
2024/03/25 00:44:07;;;;;;;;;;;12.90;72.10;;;;;;5046592;27;86956;-49
2024/03/25 00:46:32;;;;;;;;;;;12.90;72.10;;;;;;5047561;28;86987;-51
2024/03/25 00:48:58;;;;;;;;;;;12.90;72.90;;;;;;5044262;27;88741;-54
2024/03/25 00:51:24;;;;;;;;;;;12.90;72.30;;;;;;5046947;27;87054;-52
2024/03/25 00:53:49;;;;;;;;;;;12.90;72.20;;;;;;5047038;28;87000;-52
2024/03/25 00:56:16;;;;;;;;;;;12.90;72.20;;;;;;5045223;27;86982;-51
2024/03/25 00:58:41;;;;;;;;;;;12.80;72.10;;;;;;5044026;27;87609;-53
2024/03/25 01:01:07;;;;;;;;;;;12.80;72.30;;;;;;5049353;27;87872;-52
2024/03/25 01:03:33;;;;;;;;;;;12.80;72.20;;;;;;5046581;27;86985;-51
2024/03/25 01:05:59;;;;;;;;;;;12.80;72.20;;;;;;5046544;28;87962;-51
2024/03/25 01:08:24;;;;;;;;;;;12.80;72.30;;;;;;5045401;27;87423;-52
2024/03/25 01:10:50;;;;;;;;;;;12.70;72.20;;;;;;5046566;27;87160;-50
2024/03/25 01:13:16;;;;;;;;;;;12.70;72.30;;;;;;5046559;27;87879;-50
2024/03/25 01:15:42;;;;;;;;;;;12.70;72.10;;;;;;5043323;27;87584;-49
2024/03/25 01:18:08;;;;;;;;;;;12.70;72.20;;;;;;5041754;27;86881;-50
2024/03/25 01:20:33;;;;;;;;;;;12.70;72.40;;;;;;5042950;28;88009;-49
2024/03/25 01:22:59;;;;;;;;;;;12.70;72.30;;;;;;5048658;28;88450;-50
2024/03/25 01:25:25;;;;;;;;;;;12.60;72.30;;;;;;5045549;27;88041;-49
2024/03/25 01:27:51;;;;;;;;;;;12.60;72.30;;;;;;5042710;28;88312;-50
2024/03/25 01:30:18;;;;;;;;;;;12.60;72.30;;;;;;5045787;27;86213;-52
2024/03/25 01:32:46;;;;;;;;;;;12.60;72.30;;;;;;5041949;27;87184;-52
2024/03/25 01:35:12;;;;;;;;;;;12.60;72.60;;;;;;5044270;27;87521;-50
2024/03/25 01:37:37;;;;;;;;;;;12.60;72.40;;;;;;5045244;27;87915;-50
2024/03/25 01:40:04;;;;;;;;;;;12.60;72.60;;;;;;5044703;27;88768;-51
2024/03/25 01:42:30;;;;;;;;;;;12.50;72.50;;;;;;5044328;28;88500;-51
2024/03/25 01:44:55;;;;;;;;;;;12.50;72.60;;;;;;5048777;27;87919;-50
2024/03/25 01:47:21;;;;;;;;;;;12.50;72.40;;;;;;5045627;27;87370;-50
2024/03/25 01:49:48;;;;;;;;;;;12.50;72.60;;;;;;5045496;27;86991;-51
2024/03/25 01:52:13;;;;;;;;;;;12.50;72.60;;;;;;5039274;28;87921;-51
2024/03/25 01:54:39;;;;;;;;;;;12.40;72.50;;;;;;5044882;28;86774;-51
2024/03/25 01:57:05;;;;;;;;;;;12.40;72.70;;;;;;5046427;27;87039;-49
2024/03/25 01:59:30;;;;;;;;;;;12.40;72.50;;;;;;5045454;27;87528;-51
2024/03/25 02:01:57;;;;;;;;;;;12.40;72.60;;;;;;5041960;27;88913;-51
2024/03/25 02:04:22;;;;;;;;;;;12.40;72.50;;;;;;5044395;27;86945;-53
2024/03/25 02:06:49;;;;;;;;;;;12.40;72.40;;;;;;5047875;28;87018;-51
2024/03/25 02:09:15;;;;;;;;;;;12.30;72.50;;;;;;5045803;27;87277;-53
2024/03/25 02:11:41;;;;;;;;;;;12.40;72.80;;;;;;5046075;28;87496;-51
2024/03/25 02:14:07;;;;;;;;;;;12.30;72.50;;;;;;5045059;28;87507;-52
2024/03/25 02:16:32;;;;;;;;;;;12.30;72.50;;;;;;5046168;27;87004;-50
2024/03/25 02:18:58;;;;;;;;;;;12.30;72.60;;;;;;5046137;27;87288;-50
2024/03/25 02:21:24;;;;;;;;;;;12.30;72.60;;;;;;5044315;27;88448;-50
2024/03/25 02:23:51;;;;;;;;;;;12.30;72.70;;;;;;5045561;28;87063;-51
2024/03/25 02:26:17;;;;;;;;;;;12.20;72.60;;;;;;5047056;27;88095;-51
2024/03/25 02:28:42;;;;;;;;;;;12.20;72.70;;;;;;5045525;28;87037;-52
2024/03/25 02:31:08;;;;;;;;;;;12.20;72.60;;;;;;5044697;28;87032;-52
2024/03/25 02:33:33;;;;;;;;;;;12.20;72.50;;;;;;5041438;28;87727;-50
2024/03/25 02:35:59;;;;;;;;;;;12.20;72.70;;;;;;5044112;28;87083;-50
2024/03/25 02:38:25;;;;;;;;;;;12.20;72.60;;;;;;5044579;27;86977;-51
2024/03/25 02:40:50;;;;;;;;;;;12.10;72.50;;;;;;5043528;27;87344;-51
2024/03/25 02:43:16;;;;;;;;;;;12.10;72.30;;;;;;5044302;27;86317;-52
2024/03/25 02:45:41;;;;;;;;;;;12.10;72.60;;;;;;5043253;27;87059;-51
2024/03/25 02:48:07;;;;;;;;;;;12.10;72.40;;;;;;5047538;27;88491;-51
2024/03/25 02:50:33;;;;;;;;;;;12.10;72.50;;;;;;5044140;27;89759;-50
2024/03/25 02:52:58;;;;;;;;;;;12.10;72.60;;;;;;5042647;27;88872;-50
2024/03/25 02:55:24;;;;;;;;;;;12.10;72.50;;;;;;5045456;27;87823;-52
2024/03/25 02:57:50;;;;;;;;;;;12.10;72.70;;;;;;5042917;28;87105;-51
2024/03/25 03:00:15;;;;;;;;;;;12.00;72.40;;;;;;5045302;28;87504;-51
2024/03/25 03:02:41;;;;;;;;;;;12.00;72.60;;;;;;5041998;27;87346;-53
2024/03/25 03:05:06;;;;;;;;;;;12.00;72.70;;;;;;5042613;28;87998;-52
2024/03/25 03:07:32;;;;;;;;;;;12.00;72.70;;;;;;5040644;28;86549;-50
2024/03/25 03:09:57;;;;;;;;;;;12.00;72.60;;;;;;5047356;27;86872;-51
2024/03/25 03:12:23;;;;;;;;;;;12.00;72.40;;;;;;5043860;27;88423;-53
2024/03/25 03:14:49;;;;;;;;;;;11.90;72.80;;;;;;5043899;27;88015;-53
2024/03/25 03:17:14;;;;;;;;;;;11.90;72.50;;;;;;5043831;27;87996;-53
2024/03/25 03:19:40;;;;;;;;;;;11.90;72.50;;;;;;5040979;27;87633;-51
2024/03/25 03:22:05;;;;;;;;;;;11.90;72.70;;;;;;5040792;28;86851;-52
2024/03/25 03:24:31;;;;;;;;;;;11.80;72.80;;;;;;5045009;28;86931;-51
2024/03/25 03:26:57;;;;;;;;;;;11.80;72.80;;;;;;5044273;28;88032;-51
2024/03/25 03:29:22;;;;;;;;;;;11.80;72.80;;;;;;5044897;27;87045;-53
2024/03/25 03:31:48;;;;;;;;;;;11.80;72.60;;;;;;5047623;27;86996;-50
2024/03/25 03:34:13;;;;;;;;;;;11.80;72.70;;;;;;5044418;28;86895;-52
2024/03/25 03:36:40;;;;;;;;;;;11.80;72.50;;;;;;5042624;28;87328;-54
2024/03/25 03:39:08;;;;;;;;;;;11.70;72.50;;;;;;5042214;28;89559;-51
2024/03/25 03:41:34;;;;;;;;;;;11.70;72.50;;;;;;5041196;27;87163;-50
2024/03/25 03:43:59;;;;;;;;;;;11.70;72.60;;;;;;5044308;28;87233;-51
2024/03/25 03:46:25;;;;;;;;;;;11.70;72.80;;;;;;5040053;27;88557;-52
2024/03/25 03:48:50;;;;;;;;;;;11.70;72.70;;;;;;5043400;28;87232;-51
2024/03/25 03:51:16;;;;;;;;;;;11.70;73.30;;;;;;5040017;28;88451;-51
2024/03/25 03:53:41;;;;;;;;;;;11.70;72.90;;;;;;5046838;28;87411;-54
2024/03/25 03:56:07;;;;;;;;;;;11.60;72.90;;;;;;5044753;28;87010;-50
2024/03/25 03:58:33;;;;;;;;;;;11.60;72.60;;;;;;5043471;27;87475;-53
2024/03/25 04:00:59;;;;;;;;;;;11.60;72.50;;;;;;5044328;28;86955;-52
2024/03/25 04:03:24;;;;;;;;;;;11.60;72.70;;;;;;5042558;27;87976;-51
2024/03/25 04:05:50;;;;;;;;;;;11.60;72.70;;;;;;5043100;27;87631;-51
2024/03/25 04:08:15;;;;;;;;;;;11.60;72.70;;;;;;5039858;28;87113;-51
2024/03/25 04:10:43;;;;;;;;;;;11.60;72.70;;;;;;5043356;27;87366;-51
2024/03/25 04:13:08;;;;;;;;;;;11.60;72.70;;;;;;5041988;27;87683;-50
2024/03/25 04:15:34;;;;;;;;;;;11.50;72.70;;;;;;5044744;27;86980;-49
2024/03/25 04:18:00;;;;;;;;;;;11.50;72.90;;;;;;5043496;28;88428;-52
2024/03/25 04:20:29;;;;;;;;;;;11.50;72.90;;;;;;5041890;27;86912;-51
2024/03/25 04:22:55;;;;;;;;;;;11.50;72.90;;;;;;5042237;28;87288;-52
2024/03/25 04:25:21;;;;;;;;;;;11.40;72.90;;;;;;5041895;28;87059;-52
2024/03/25 04:27:46;;;;;;;;;;;11.40;72.90;;;;;;5042919;27;87829;-50
2024/03/25 04:30:12;;;;;;;;;;;11.40;72.80;;;;;;5043507;27;87835;-50
2024/03/25 04:32:39;;;;;;;;;;;11.40;72.80;;;;;;5042989;27;88431;-50
2024/03/25 04:35:06;;;;;;;;;;;11.40;72.90;;;;;;5045317;27;87102;-52
2024/03/25 04:37:31;;;;;;;;;;;11.30;72.70;;;;;;5040266;28;89091;-52
2024/03/25 04:39:57;;;;;;;;;;;11.30;73.00;;;;;;5042871;27;87612;-52
2024/03/25 04:42:23;;;;;;;;;;;11.30;73.10;;;;;;5042613;28;87380;-53
2024/03/25 04:44:49;;;;;;;;;;;11.30;73.00;;;;;;5041208;27;87068;-53
2024/03/25 04:47:15;;;;;;;;;;;11.20;73.20;;;;;;5041796;27;87364;-51
2024/03/25 04:49:41;;;;;;;;;;;11.20;73.00;;;;;;5042053;27;86894;-54
2024/03/25 04:52:06;;;;;;;;;;;11.20;73.00;;;;;;5041816;27;88257;-52
2024/03/25 04:54:32;;;;;;;;;;;11.20;73.10;;;;;;5044127;27;86913;-54
2024/03/25 04:56:57;;;;;;;;;;;11.20;73.10;;;;;;5046029;27;86966;-54
2024/03/25 04:59:23;;;;;;;;;;;11.20;73.20;;;;;;5043487;27;87104;-56
2024/03/25 05:01:48;;;;;;;;;;;11.20;73.20;;;;;;5042842;28;87487;-53
2024/03/25 05:04:14;;;;;;;;;;;11.10;73.20;;;;;;5041471;28;87588;-51
2024/03/25 05:06:39;;;;;;;;;;;11.20;73.30;;;;;;5042871;28;87351;-51
2024/03/25 05:09:06;;;;;;;;;;;11.10;73.90;;;;;;5041769;28;86413;-52
2024/03/25 05:11:32;;;;;;;;;;;11.10;73.20;;;;;;5041076;28;88479;-51
2024/03/25 05:13:57;;;;;;;;;;;11.10;73.10;;;;;;5041639;27;87579;-53
2024/03/25 05:16:23;;;;;;;;;;;11.00;73.20;;;;;;5046041;28;88234;-53
2024/03/25 05:18:48;;;;;;;;;;;11.00;73.10;;;;;;5048424;27;87412;-52
2024/03/25 05:21:14;;;;;;;;;;;11.00;73.10;;;;;;5047309;27;86991;-53
2024/03/25 05:23:39;;;;;;;;;;;11.00;73.20;;;;;;5045748;28;87596;-50
2024/03/25 05:26:05;;;;;;;;;;;11.00;73.30;;;;;;5046567;27;87192;-53
2024/03/25 05:28:31;;;;;;;;;;;11.00;73.20;;;;;;5046248;27;87898;-54
2024/03/25 05:30:56;;;;;;;;;;;11.00;73.30;;;;;;5044300;27;87497;-53
2024/03/25 05:33:22;;;;;;;;;;;10.90;73.20;;;;;;5046045;28;86308;-54
2024/03/25 05:35:47;;;;;;;;;;;10.90;73.40;;;;;;5043851;28;87078;-51
2024/03/25 05:38:13;;;;;;;;;;;10.90;73.40;;;;;;5040372;27;87416;-54
2024/03/25 05:40:38;;;;;;;;;;;10.90;73.40;;;;;;5047565;28;88005;-51
2024/03/25 05:43:04;;;;;;;;;;;10.90;73.60;;;;;;5042997;28;87705;-54
2024/03/25 05:45:30;;;;;;;;;;;10.90;73.50;;;;;;5046031;27;87289;-53
2024/03/25 05:47:55;;;;;;;;;;;10.90;73.40;;;;;;5046398;27;87089;-50
2024/03/25 05:50:21;;;;;;;;;;;10.90;73.30;;;;;;5041875;27;88066;-51
2024/03/25 05:52:46;;;;;;;;;;;10.90;73.20;;;;;;5044036;28;87566;-53
2024/03/25 05:55:12;;;;;;;;;;;10.90;73.20;;;;;;5042260;28;86999;-52
2024/03/25 05:57:38;;;;;;;;;;;10.90;73.30;;;;;;5044263;27;87607;-52
2024/03/25 06:00:04;;;;;;;;;;;10.80;73.30;;;;;;5043554;27;86910;-51
2024/03/25 06:02:30;;;;;;;;;;;10.80;73.20;;;;;;5048394;27;88070;-54
2024/03/25 06:04:56;;;;;;;;;;;10.80;73.30;;;;;;5044003;27;88608;-53
2024/03/25 06:07:22;;;;;;;;;;;10.80;73.40;;;;;;5044816;27;88650;-53
2024/03/25 06:09:47;;;;;;;;;;;10.80;73.30;;;;;;5043632;28;88945;-53
2024/03/25 06:12:13;;;;;;;;;;;10.80;73.30;;;;;;5046010;28;86946;-51
2024/03/25 06:14:39;;;;;;;;;;;10.70;73.30;;;;;;5044762;27;87167;-52
2024/03/25 06:17:04;;;;;;;;;;;10.70;73.40;;;;;;5046076;28;88065;-53
2024/03/25 06:19:30;;;;;;;;;;;10.70;73.30;;;;;;5044788;28;87665;-51
2024/03/25 06:21:55;;;;;;;;;;;10.70;73.20;;;;;;5045988;28;87016;-51
2024/03/25 06:24:21;;;;;;;;;;;10.70;73.40;;;;;;5043424;28;87418;-51
2024/03/25 06:26:46;;;;;;;;;;;10.70;73.30;;;;;;5045331;27;86837;-54
2024/03/25 06:29:12;;;;;;;;;;;10.70;73.20;;;;;;5044713;27;88255;-53
2024/03/25 06:34:22;;;;;;;;;;;10.70;73.30;;;;;;5045446;28;86986;-52
2024/03/25 06:36:48;;;;;;;;;;;10.70;73.20;;;;;;5042610;27;88415;-50
2024/03/25 06:39:14;;;;;;;;;;;10.60;73.30;;;;;;5041915;27;87315;-51
2024/03/25 06:41:39;;;;;;;;;;;10.60;73.30;;;;;;5045832;28;87056;-50
2024/03/25 06:44:05;;;;;;;;;;;10.60;73.10;;;;;;5047658;27;87502;-49
2024/03/25 06:46:31;;;;;;;;;;;10.70;73.20;;;;;;5045442;28;87029;-52
2024/03/25 06:48:56;;;;;;;;;;;10.60;73.10;;;;;;5044568;28;87872;-51
2024/03/25 06:51:22;;;;;;;;;;;10.60;73.10;;;;;;5044672;28;87145;-51
2024/03/25 06:53:47;;;;;;;;;;;10.70;73.10;;;;;;5040203;28;87984;-53
2024/03/25 06:56:13;;;;;;;;;;;10.70;73.00;;;;;;5042267;28;87439;-51
2024/03/25 06:58:39;;;;;;;;;;;10.60;72.90;;;;;;5042248;27;86999;-53
2024/03/25 07:01:08;;;;;;;;;;;10.60;73.00;;;;;;5045304;28;87105;-53
2024/03/25 07:03:34;;;;;;;;;;;10.60;72.90;;;;;;5043065;28;87583;-50
2024/03/25 07:06:00;;;;;;;;;;;10.60;73.00;;;;;;5048784;27;87203;-51
2024/03/25 07:08:26;;;;;;;;;;;10.60;73.10;;;;;;5044317;27;88655;-53
2024/03/25 07:10:52;;;;;;;;;;;10.50;73.10;;;;;;5042991;28;86832;-52
2024/03/25 07:13:18;;;;;;;;;;;10.50;73.10;;;;;;5039971;27;87433;-52
2024/03/25 07:15:43;;;;;;;;;;;10.50;73.20;;;;;;5042218;28;87467;-52
2024/03/25 07:18:13;;;;;;;;;;;10.50;73.20;;;;;;5040110;27;87985;-50
2024/03/25 07:20:42;;;;;;;;;;;10.50;73.10;;;;;;5041449;28;88854;-51
2024/03/25 07:23:08;;;;;;;;;;;10.50;73.10;;;;;;5042016;27;87450;-50
2024/03/25 07:25:34;;;;;;;;;;;10.50;73.00;;;;;;5043091;27;86907;-53
2024/03/25 07:27:59;;;;;;;;;;;10.40;73.00;;;;;;5045066;27;86998;-49
2024/03/25 07:30:28;;;;;;;;;;;10.40;73.00;;;;;;5042946;28;87739;-51
2024/03/25 07:32:54;;;;;;;;;;;10.40;73.10;;;;;;5037705;28;87008;-52
2024/03/25 07:35:19;;;;;;;;;;;10.40;72.80;;;;;;5042325;28;86994;-51
2024/03/25 07:37:45;;;;;;;;;;;10.40;73.00;;;;;;5043418;27;87018;-51
2024/03/25 07:40:11;;;;;;;;;;;10.40;73.00;;;;;;5043439;27;87556;-51
2024/03/25 07:42:37;;;;;;;;;;;10.40;72.90;;;;;;5043826;27;89487;-50
2024/03/25 07:45:04;;;;;;;;;;;10.40;72.80;;;;;;5043073;27;86978;-50
2024/03/25 07:47:30;;;;;;;;;;;10.40;72.70;;;;;;5039988;28;88590;-53
2024/03/25 07:49:56;;;;;;;;;;;10.40;72.60;;;;;;5044911;27;87342;-53
2024/03/25 07:52:21;;;;;;;;;;;10.40;72.80;;;;;;5043990;28;86979;-49
2024/03/25 07:54:47;;;;;;;;;;;10.30;72.50;;;;;;5041951;27;87060;-50
2024/03/25 07:59:56;;;;;;;;;;;10.30;72.30;;;;;;5039059;28;86558;-50
2024/03/25 08:02:22;;;;;;;;;;;10.30;72.20;;;;;;5041054;28;87348;-50
2024/03/25 08:04:47;;;;;;;;;;;10.40;72.30;;;;;;5043056;28;86969;-53
2024/03/25 08:07:13;;;;;;;;;;;10.40;72.20;;;;;;5043508;28;87845;-49
2024/03/25 08:09:38;;;;;;;;;;;10.30;72.10;;;;;;5041450;28;87106;-49
2024/03/25 08:12:04;;;;;;;;;;;10.30;72.30;;;;;;5047374;28;86998;-52
2024/03/25 08:14:30;;;;;;;;;;;10.30;72.20;;;;;;5043155;28;88184;-49
2024/03/25 08:16:55;;;;;;;;;;;10.30;72.40;;;;;;5041966;27;86994;-49
2024/03/25 08:19:21;;;;;;;;;;;10.30;72.30;;;;;;5044035;28;86959;-51
2024/03/25 08:21:46;;;;;;;;;;;10.30;72.30;;;;;;5042261;27;87466;-50
2024/03/25 08:24:14;;;;;;;;;;;10.30;72.20;;;;;;5043014;28;86339;-49
2024/03/25 08:26:39;;;;;;;;;;;10.30;72.20;;;;;;5041346;27;86972;-52
2024/03/25 08:29:05;;;;;;;;;;;10.30;72.20;;;;;;5040252;28;87489;-49
2024/03/25 08:31:31;;;;;;;;;;;10.30;72.20;;;;;;5046475;28;87746;-49
2024/03/25 08:33:56;;;;;;;;;;;10.30;72.30;;;;;;5043406;27;87692;-48
2024/03/25 08:36:23;;;;;;;;;;;10.20;73.00;;;;;;5042343;28;87025;-49
2024/03/25 08:38:49;;;;;;;;;;;10.20;72.40;;;;;;5043153;27;88061;-49
2024/03/25 08:41:15;;;;;;;;;;;10.30;72.40;;;;;;5041872;27;87540;-50
2024/03/25 08:43:40;;;;;;;;;;;10.20;72.40;;;;;;5040840;27;87008;-51
2024/03/25 08:46:06;;;;;;;;;;;10.20;72.40;;;;;;5043065;27;87646;-51
2024/03/25 08:48:31;;;;;;;;;;;10.20;72.50;;;;;;5044492;27;87573;-49
2024/03/25 08:50:57;;;;;;;;;;;10.30;72.50;;;;;;5046247;27;87787;-52
2024/03/25 08:53:22;;;;;;;;;;;10.20;72.40;;;;;;5049757;28;88117;-48
2024/03/25 08:55:48;;;;;;;;;;;10.20;72.50;;;;;;5041852;27;88205;-49
2024/03/25 08:58:14;;;;;;;;;;;10.20;72.50;;;;;;5046892;28;86953;-52
2024/03/25 09:00:40;;;;;;;;;;;10.20;72.50;;;;;;5045639;27;87512;-49
2024/03/25 09:03:05;;;;;;;;;;;10.10;72.50;;;;;;5044190;27;87268;-47
2024/03/25 09:05:31;;;;;;;;;;;10.10;72.60;;;;;;5046078;27;86864;-48
2024/03/25 09:07:58;;;;;;;;;;;10.20;72.60;;;;;;5041903;27;87701;-49
2024/03/25 09:13:08;;;;;;;;;;;10.10;72.60;;;;;;5044957;28;86881;-47
2024/03/25 09:15:34;;;;;;;;;;;10.10;72.60;;;;;;5048550;27;87726;-50
2024/03/25 09:18:00;;;;;;;;;;;10.10;72.50;;;;;;5046664;27;86939;-51
2024/03/25 09:20:26;;;;;;;;;;;10.10;72.50;;;;;;5042606;28;89427;-52
2024/03/25 09:22:52;;;;;;;;;;;10.10;72.60;;;;;;5042772;27;87471;-48
2024/03/25 09:25:18;;;;;;;;;;;10.10;72.40;;;;;;5046354;27;86901;-48
2024/03/25 09:27:47;;;;;;;;;;;10.10;72.60;;;;;;5045398;27;88408;-50
2024/03/25 09:30:13;;;;;;;;;;;10.10;72.70;;;;;;5039744;27;87181;-49
2024/03/25 09:32:39;;;;;;;;;;;10.00;72.50;;;;;;5041886;27;87618;-48
2024/03/25 09:35:05;;;;;;;;;;;10.10;72.40;;;;;;5046449;27;87241;-49
2024/03/25 09:37:31;;;;;;;;;;;10.10;72.50;;;;;;5049853;27;86264;-50
2024/03/25 09:39:58;;;;;;;;;;;10.10;72.30;;;;;;5045624;28;88539;-49
2024/03/25 09:42:27;;;;;;;;;;;10.10;72.30;;;;;;5044064;28;86962;-49
2024/03/25 09:44:56;;;;;;;;;;;10.10;72.60;;;;;;5048002;27;87957;-49
2024/03/25 09:47:22;;;;;;;;;;;10.00;72.40;;;;;;5048901;27;87535;-48
2024/03/25 09:49:48;;;;;;;;;;;10.00;72.50;;;;;;5043712;28;87057;-47
2024/03/25 09:52:14;;;;;;;;;;;10.10;72.40;;;;;;5045635;27;87115;-48
2024/03/25 09:54:39;;;;;;;;;;;10.00;72.30;;;;;;5043431;28;87515;-48
2024/03/25 09:57:06;;;;;;;;;;;10.10;72.20;;;;;;5043104;28;86999;-48
2024/03/25 09:59:31;;;;;;;;;;;10.10;72.40;;;;;;5046851;27;87267;-48
2024/03/25 10:01:58;;;;;;;;;;;10.00;72.20;;;;;;5041287;28;86242;-48
2024/03/25 10:04:25;;;;;;;;;;;10.00;72.30;;;;;;5044135;27;86980;-49
2024/03/25 10:06:50;;;;;;;;;;;10.00;72.40;;;;;;5045537;27;88287;-49
2024/03/25 10:09:19;;;;;;;;;;;10.00;72.20;;;;;;5041593;27;87957;-49
2024/03/25 10:11:47;;;;;;;;;;;10.00;72.40;;;;;;5044981;27;87726;-48
2024/03/25 10:14:12;;;;;;;;;;;10.00;72.40;;;;;;5038409;28;87997;-48
2024/03/25 10:16:38;;;;;;;;;;;10.00;72.40;;;;;;5043401;28;87062;-47
2024/03/25 10:19:03;;;;;;;;;;;10.00;72.40;;;;;;5042693;28;86996;-49
2024/03/25 10:21:29;;;;;;;;;;;10.00;72.50;;;;;;5048384;28;87570;-48
2024/03/25 10:23:55;;;;;;;;;;;10.00;72.40;;;;;;5045596;27;86960;-49
2024/03/25 10:26:31;;;;;;;;;;;10.00;72.30;;;;;;5044137;27;87723;-48
2024/03/25 10:29:01;;;;;;;;;;;10.00;72.30;;;;;;5041390;27;87090;-49
2024/03/25 10:31:26;;;;;;;;;;;10.00;72.40;;;;;;5044395;27;87132;-49
2024/03/25 10:33:52;;;;;;;;;;;10.00;72.50;;;;;;5044156;27;89298;-48
2024/03/25 10:36:19;;;;;;;;;;;10.00;72.50;;;;;;5039626;28;87041;-49
2024/03/25 10:38:45;;;;;;;;;;;10.00;72.40;;;;;;5041996;28;89958;-48
2024/03/25 10:41:12;;;;;;;;;;;9.90;72.20;;;;;;5046832;27;88000;-49
2024/03/25 10:43:38;;;;;;;;;;;9.90;72.40;;;;;;5044439;27;86889;-49
2024/03/25 10:46:04;;;;;;;;;;;9.90;72.40;;;;;;5042467;27;88360;-50
2024/03/25 10:48:39;;;;;;;;;;;9.90;72.40;;;;;;5043969;28;87071;-48
2024/03/25 10:51:06;;;;;;;;;;;9.90;72.30;;;;;;5043324;28;86725;-48
2024/03/25 10:53:32;;;;;;;;;;;9.90;72.20;;;;;;5040832;28;88485;-48
2024/03/25 10:56:01;;;;;;;;;;;9.90;72.50;;;;;;5041413;27;88639;-48
2024/03/25 10:58:27;;;;;;;;;;;9.90;72.40;;;;;;5040626;27;87971;-49
2024/03/25 11:00:56;;;;;;;;;;;9.90;72.50;;;;;;5044155;28;87409;-50
2024/03/25 11:03:23;;;;;;;;;;;9.90;72.50;;;;;;5047723;27;87100;-48
2024/03/25 11:05:49;;;;;;;;;;;9.90;72.50;;;;;;5044656;27;88603;-48
2024/03/25 11:08:16;;;;;;;;;;;9.90;72.50;;;;;;5043323;27;87081;-49
2024/03/25 11:10:46;;;;;;;;;;;9.90;72.50;;;;;;5040539;27;87009;-49
2024/03/25 11:13:17;;;;;;;;;;;9.90;72.50;;;;;;5041535;28;88481;-50
2024/03/25 11:15:44;;;;;;;;;;;9.90;72.50;;;;;;5043586;27;86968;-48
2024/03/25 11:18:13;;;;;;;;;;;9.90;72.70;;;;;;5044318;27;86938;-48
2024/03/25 11:20:38;;;;;;;;;;;9.90;72.60;;;;;;5039655;27;87516;-47
2024/03/25 11:23:11;;;;;;;;;;;9.90;72.60;;;;;;5040326;28;87856;-50
2024/03/25 11:25:37;;;;;;;;;;;9.90;72.60;;;;;;5044761;28;87574;-50
2024/03/25 11:28:03;;;;;;;;;;;9.90;72.50;;;;;;5044483;27;86997;-49
2024/03/25 11:30:29;;;;;;;;;;;9.90;72.50;;;;;;5044199;27;88162;-48
2024/03/25 11:32:55;;;;;;;;;;;9.90;72.40;;;;;;5044198;27;88501;-49
2024/03/25 11:35:21;;;;;;;;;;;9.90;72.50;;;;;;5042210;27;86923;-48
2024/03/25 11:37:47;;;;;;;;;;;9.90;72.40;;;;;;5040625;27;87986;-48
2024/03/25 11:40:14;;;;;;;;;;;9.90;72.30;;;;;;5043192;27;87727;-49
2024/03/25 11:42:40;;;;;;;;;;;9.90;72.30;;;;;;5043742;28;86974;-49
2024/03/25 11:45:26;;;;;;;;;;;9.90;72.30;;;;;;5044181;27;86928;-48
2024/03/25 11:47:51;;;;;;;;;;;9.90;72.20;;;;;;5045996;27;88371;-48
2024/03/25 11:50:18;;;;;;;;;;;9.90;72.30;;;;;;5043334;27;88886;-49
2024/03/25 11:52:44;;;;;;;;;;;9.90;72.70;;;;;;5042008;27;87611;-49
2024/03/25 11:55:12;;;;;;;;;;;9.90;72.10;;;;;;5044061;27;86852;-49
2024/03/25 11:57:38;;;;;;;;;;;9.90;72.20;;;;;;5042361;27;87207;-48
2024/03/25 12:00:10;;;;;;;;;;;9.90;72.00;;;;;;5039193;28;88556;-49
2024/03/25 12:02:37;;;;;;;;;;;10.00;71.90;;;;;;5039826;28;86773;-49
2024/03/25 12:05:03;;;;;;;;;;;10.00;71.80;;;;;;5040521;28;86967;-49
2024/03/25 12:07:28;;;;;;;;;;;10.00;71.90;;;;;;5043757;27;88200;-48
2024/03/25 12:12:43;;;;;;;;;;;10.00;71.70;;;;;;5041629;28;88303;-48
2024/03/25 12:15:09;;;;;;;;;;;10.00;71.80;;;;;;5043171;28;87169;-48
2024/03/25 12:17:35;;;;;;;;;;;10.00;71.50;;;;;;5041271;27;87861;-49
2024/03/25 12:20:13;;;;;;;;;;;9.90;71.60;;;;;;5043008;27;87611;-48
2024/03/25 12:22:38;;;;;;;;;;;9.90;71.70;;;;;;5041064;27;87260;-48
2024/03/25 12:25:08;;;;;;;;;;;9.90;71.70;;;;;;5043423;28;86957;-51
2024/03/25 12:27:34;;;;;;;;;;;10.00;71.70;;;;;;5044483;27;88485;-47
2024/03/25 12:30:03;;;;;;;;;;;9.90;71.60;;;;;;5046476;27;86378;-51
2024/03/25 12:32:46;;;;;;;;;;;9.90;71.70;;;;;;5048413;27;87271;-51
2024/03/25 12:35:13;;;;;;;;;;;9.90;71.60;;;;;;5047553;28;88063;-49
2024/03/25 12:37:43;;;;;;;;;;;9.90;71.40;;;;;;5045623;28;88604;-49
2024/03/25 12:40:10;;;;;;;;;;;9.90;71.50;;;;;;5046540;27;88670;-47
2024/03/25 12:42:36;;;;;;;;;;;10.00;71.80;;;;;;5045999;27;87018;-49
2024/03/25 12:45:03;;;;;;;;;;;10.00;71.60;;;;;;5047524;27;87290;-51
2024/03/25 12:47:29;;;;;;;;;;;10.00;71.60;;;;;;5043239;28;87481;-51
2024/03/25 12:49:54;;;;;;;;;;;10.00;71.40;;;;;;5042223;27;86934;-49
2024/03/25 12:52:21;;;;;;;;;;;10.00;71.30;;;;;;5049806;28;87133;-50
2024/03/25 12:54:46;;;;;;;;;;;10.00;71.40;;;;;;5046596;27;86145;-48
2024/03/25 12:57:12;;;;;;;;;;;10.00;71.40;;;;;;5044563;27;87247;-51
2024/03/25 12:59:38;;;;;;;;;;;10.00;71.40;;;;;;5047153;28;88174;-48
2024/03/25 13:02:03;;;;;;;;;;;10.00;71.30;;;;;;5046654;27;87954;-49
2024/03/25 13:04:29;;;;;;;;;;;10.00;71.40;;;;;;5046033;27;88749;-48
2024/03/25 13:06:54;;;;;;;;;;;10.10;71.50;;;;;;5046597;28;87494;-48
2024/03/25 13:09:20;;;;;;;;;;;10.00;71.40;;;;;;5045542;28;87039;-48
2024/03/25 13:11:46;;;;;;;;;;;10.00;71.60;;;;;;5045342;27;86789;-48
2024/03/25 13:14:12;;;;;;;;;;;10.00;71.40;;;;;;5047588;27;87397;-49
2024/03/25 13:16:41;;;;;;;;;;;10.00;71.60;;;;;;5046788;28;86977;-49
2024/03/25 13:19:07;;;;;;;;;;;10.00;71.90;;;;;;5042921;28;86783;-48
2024/03/25 13:21:33;;;;;;;;;;;10.00;71.40;;;;;;5042692;28;87040;-49
2024/03/25 13:23:58;;;;;;;;;;;10.00;71.30;;;;;;5045838;28;88436;-48
2024/03/25 13:26:24;;;;;;;;;;;10.00;71.50;;;;;;5045402;27;88478;-50
2024/03/25 13:28:50;;;;;;;;;;;10.00;71.30;;;;;;5046923;27;86907;-51
2024/03/25 13:31:15;;;;;;;;;;;10.00;71.20;;;;;;5045074;27;87892;-49
2024/03/25 13:33:41;;;;;;;;;;;10.00;71.10;;;;;;5046513;27;87631;-49
2024/03/25 13:36:07;;;;;;;;;;;10.10;71.30;;;;;;5047192;27;87017;-48
2024/03/25 13:38:33;;;;;;;;;;;10.10;71.60;;;;;;5045910;27;87736;-48
2024/03/25 13:41:01;;;;;;;;;;;10.10;71.50;;;;;;5042288;28;87379;-49
2024/03/25 13:43:27;;;;;;;;;;;10.10;71.40;;;;;;5046659;27;87001;-48
2024/03/25 13:45:52;;;;;;;;;;;10.10;71.50;;;;;;5041978;28;87076;-47
2024/03/25 13:48:18;;;;;;;;;;;10.10;71.40;;;;;;5043519;28;87051;-49
2024/03/25 13:50:44;;;;;;;;;;;10.10;71.50;;;;;;5045120;27;87993;-49
2024/03/25 13:53:10;;;;;;;;;;;10.20;71.60;;;;;;5044927;28;87274;-48
2024/03/25 13:55:36;;;;;;;;;;;10.20;71.40;;;;;;5045938;28;86875;-48
2024/03/25 13:58:01;;;;;;;;;;;10.20;71.50;;;;;;5048113;27;87100;-47
2024/03/25 14:00:28;;;;;;;;;;;10.20;71.30;;;;;;5046042;27;88700;-47
2024/03/25 14:02:56;;;;;;;;;;;10.20;71.30;;;;;;5043196;27;87944;-48
2024/03/25 14:05:23;;;;;;;;;;;10.20;71.30;;;;;;5044890;28;88462;-48
2024/03/25 14:07:49;;;;;;;;;;;10.20;71.50;;;;;;5046924;27;86335;-49
2024/03/25 14:10:15;;;;;;;;;;;10.20;71.50;;;;;;5044690;28;86950;-49
2024/03/25 14:12:40;;;;;;;;;;;10.20;71.60;;;;;;5044851;27;87148;-48
2024/03/25 14:15:06;;;;;;;;;;;10.20;71.60;;;;;;5041835;28;88255;-48
2024/03/25 14:17:32;;;;;;;;;;;10.20;71.50;;;;;;5042483;27;88560;-48
2024/03/25 14:19:57;;;;;;;;;;;10.20;71.50;;;;;;5047548;27;88242;-48
2024/03/25 14:22:23;;;;;;;;;;;10.20;71.50;;;;;;5045852;28;87866;-47